Terminal Aerodrome Forecast
Issued by NWS North Platte, NE

Home | Current Version | Previous Version | Text Only | Print | Product List | Glossary Off
Versions: 1 2 3 4 5 6 7 8 9 10 11 12 13 14 15 16 17

000
FTUS43 KLBF 281120
TAFVTN
TAF
KVTN 281120Z 2812/2912 29007KT P6SM FEW100
     FM281400 30012G18KT P6SM SCT100
     FM281700 32017G25KT P6SM BKN100
     FM282300 32012KT P6SM VCSH BKN100
     FM290400 28007KT P6SM SCT100=

USA.gov is the U.S. government's official web portal to all federal, state and local government web resources and services.